Time;durP1;ratioP1;P1;durP2;ratioP2;P2;SDS_P1;SDS_P2;PMS_P1;PMS_P2;Temp;Humidity;BMP_temperature;BMP_pressure;BME280_temperature;BME280_humidity;BME280_pressure;Samples;Min_cycle;Max_cycle;Signal;HPM_P1;HPM_P2
2024/02/09 00:00:40;;;;;;;;;;;;;;;0.53;100.00;99663.80;109494;1251;59872;-58
2024/02/09 00:03:10;;;;;;;;;;;;;;;0.53;100.00;99659.36;109351;1252;74490;-59
2024/02/09 00:05:38;;;;;;;;;;;;;;;0.54;100.00;99658.80;109424;1252;67057;-58
2024/02/09 00:08:06;;;;;;;;;;;;;;;0.52;100.00;99660.64;109418;1250;72779;-59
2024/02/09 00:10:36;;;;;;;;;;;;;;;0.50;100.00;99662.16;109434;1251;59336;-58
2024/02/09 00:13:05;;;;;;;;;;;;;;;0.48;100.00;99663.33;109357;1251;59880;-64
2024/02/09 00:15:33;;;;;;;;;;;;;;;0.47;100.00;99657.86;109341;1253;73611;-59
2024/02/09 00:18:02;;;;;;;;;;;;;;;0.45;100.00;99658.31;109402;1253;66946;-58
2024/02/09 00:20:31;;;;;;;;;;;;;;;0.45;100.00;99658.34;109404;1252;72675;-58
2024/02/09 00:22:59;;;;;;;;;;;;;;;0.44;100.00;99653.13;109361;1252;58995;-58
2024/02/09 00:25:27;;;;;;;;;;;;;;;0.43;100.00;99653.51;109345;1252;60553;-58
2024/02/09 00:27:54;;;;;;;;;;;;;;;0.41;100.00;99654.17;109441;1252;74553;-59
2024/02/09 00:30:24;;;;;;;;;;;;;;;0.39;100.00;99655.29;109391;1258;65703;-57
2024/02/09 00:32:53;;;;;;;;;;;;;;;0.35;100.00;99648.09;109414;1251;72771;-58
2024/02/09 00:35:23;;;;;;;;;;;;;;;0.32;100.00;99651.63;109347;1251;59978;-58
2024/02/09 00:38:00;;;;;;;;;;;;;;;0.30;100.00;99659.60;109365;1252;59344;-58
2024/02/09 00:40:31;;;;;;;;;;;;;;;0.28;100.00;99658.77;109445;1252;73768;-58
2024/02/09 00:43:02;;;;;;;;;;;;;;;0.27;100.00;99654.79;109344;1253;67257;-61
2024/02/09 00:45:36;;;;;;;;;;;;;;;0.25;100.00;99656.61;109371;1254;72756;-58
2024/02/09 00:48:04;;;;;;;;;;;;;;;0.23;100.00;99663.30;109469;1251;60001;-58
2024/02/09 00:50:34;;;;;;;;;;;;;;;0.21;100.00;99660.37;109536;1251;59259;-58
2024/02/09 00:53:04;;;;;;;;;;;;;;;0.21;100.00;99652.81;109418;1251;74662;-57
2024/02/09 00:55:32;;;;;;;;;;;;;;;0.22;100.00;99655.98;109502;1250;66958;-58
2024/02/09 00:58:00;;;;;;;;;;;;;;;0.22;100.00;99658.37;109460;1250;70854;-58
2024/02/09 01:00:30;;;;;;;;;;;;;;;0.23;100.00;99656.63;109470;1251;59327;-57
2024/02/09 01:02:59;;;;;;;;;;;;;;;0.21;100.00;99657.78;109447;1251;58932;-58
2024/02/09 01:05:27;;;;;;;;;;;;;;;0.20;100.00;99664.04;109504;1250;74736;-57
2024/02/09 01:07:55;;;;;;;;;;;;;;;0.19;100.00;99665.46;109503;1250;66176;-57
2024/02/09 01:10:23;;;;;;;;;;;;;;;0.18;100.00;99661.48;109427;1250;71491;-58
2024/02/09 02:46:40;;;;;;;;;;;;;;;-0.37;100.00;99686.48;109479;1256;72720;-56
2024/02/09 03:05:45;;;;;;;;;;;;;;;-0.49;100.00;99669.02;109515;1251;58937;-56
2024/02/09 03:08:13;;;;;;;;;;;;;;;-0.52;100.00;99665.79;109496;1253;73449;-57
2024/02/09 03:11:01;;;;;;;;;;;;;;;-0.54;100.00;99662.91;109515;1250;67785;-56
2024/02/09 03:13:28;;;;;;;;;;;;;;;-0.55;100.00;99659.81;109415;1253;72755;-57
2024/02/09 03:15:56;;;;;;;;;;;;;;;-0.58;100.00;99657.32;109440;1251;60128;-56
2024/02/09 03:18:25;;;;;;;;;;;;;;;-0.61;100.00;99649.30;109434;1251;58841;-56
2024/02/09 03:20:58;;;;;;;;;;;;;;;-0.62;100.00;99661.71;109439;1251;74102;-56
2024/02/09 03:23:26;;;;;;;;;;;;;;;-0.63;100.00;99668.64;109494;1250;67394;-57
2024/02/09 03:25:54;;;;;;;;;;;;;;;-0.66;100.00;99656.73;109398;1256;71462;-56
2024/02/09 03:28:22;;;;;;;;;;;;;;;-0.67;100.00;99643.91;109504;1251;60294;-60
2024/02/09 03:30:49;;;;;;;;;;;;;;;-0.69;100.00;99656.30;109445;1253;59854;-55
2024/02/09 03:33:17;;;;;;;;;;;;;;;-0.70;100.00;99652.45;109463;1251;74706;-56
2024/02/09 03:35:45;;;;;;;;;;;;;;;-0.70;100.00;99645.54;109500;1250;67206;-56
2024/02/09 03:38:13;;;;;;;;;;;;;;;-0.70;100.00;99641.44;109436;1251;71439;-56
2024/02/09 03:40:41;;;;;;;;;;;;;;;-0.72;100.00;99652.46;109406;1256;60959;-56
2024/02/09 03:43:10;;;;;;;;;;;;;;;-0.73;100.00;99659.70;109444;1251;59878;-55
2024/02/09 03:45:41;;;;;;;;;;;;;;;-0.72;100.00;99668.38;109467;1250;74732;-56
2024/02/09 03:48:09;;;;;;;;;;;;;;;-0.72;100.00;99672.12;109515;1250;67037;-56
2024/02/09 03:50:37;;;;;;;;;;;;;;;-0.72;100.00;99666.13;109408;1253;72734;-56
2024/02/09 03:53:05;;;;;;;;;;;;;;;-0.73;100.00;99660.05;109446;1253;60904;-55
2024/02/09 03:55:36;;;;;;;;;;;;;;;-0.74;100.00;99661.97;109465;1251;59132;-55
2024/02/09 03:58:04;;;;;;;;;;;;;;;-0.74;100.00;99654.86;109511;1251;73472;-56
2024/02/09 04:00:31;;;;;;;;;;;;;;;-0.75;100.00;99649.25;109412;1251;67485;-56
2024/02/09 04:02:59;;;;;;;;;;;;;;;-0.75;100.00;99662.73;109485;1254;71260;-55
2024/02/09 04:05:26;;;;;;;;;;;;;;;-0.75;100.00;99664.67;109483;1250;59424;-55
2024/02/09 04:07:59;;;;;;;;;;;;;;;-0.77;100.00;99664.94;109494;1251;58978;-55
2024/02/09 04:10:26;;;;;;;;;;;;;;;-0.77;100.00;99653.52;109464;1251;74750;-62
2024/02/09 04:13:12;;;;;;;;;;;;;;;-0.78;100.00;99648.15;109480;1251;66937;-55
2024/02/09 04:15:40;;;;;;;;;;;;;;;-0.80;100.00;99640.46;109469;1253;72746;-55
2024/02/09 04:18:08;;;;;;;;;;;;;;;-0.82;100.00;99639.83;109462;1254;59686;-59
2024/02/09 04:20:37;;;;;;;;;;;;;;;-0.83;100.00;99645.20;109442;1251;59213;-56
2024/02/09 04:23:07;;;;;;;;;;;;;;;-0.83;100.00;99649.95;109455;1251;73462;-55
2024/02/09 04:25:36;;;;;;;;;;;;;;;-0.84;100.00;99637.05;109460;1252;67418;-55
2024/02/09 04:28:04;;;;;;;;;;;;;;;-0.85;100.00;99635.27;109379;1251;73142;-56
2024/02/09 04:30:32;;;;;;;;;;;;;;;-0.86;100.00;99636.55;109511;1253;59341;-55
2024/02/09 04:32:59;;;;;;;;;;;;;;;-0.86;100.00;99628.34;109438;1251;58888;-55
2024/02/09 04:35:27;;;;;;;;;;;;;;;-0.85;100.00;99628.48;109416;1251;74667;-56
2024/02/09 04:37:54;;;;;;;;;;;;;;;-0.85;100.00;99620.29;109428;1252;65636;-63
2024/02/09 04:40:22;;;;;;;;;;;;;;;-0.86;100.00;99628.52;109432;1251;72711;-55
2024/02/09 04:42:49;;;;;;;;;;;;;;;-0.86;100.00;99643.71;109434;1251;59515;-55
2024/02/09 04:45:17;;;;;;;;;;;;;;;-0.87;100.00;99633.91;109482;1251;59850;-56
2024/02/09 04:47:44;;;;;;;;;;;;;;;-0.87;100.00;99626.05;109442;1251;74001;-56
2024/02/09 04:50:12;;;;;;;;;;;;;;;-0.87;100.00;99638.98;109433;1251;66964;-56
2024/02/09 04:52:39;;;;;;;;;;;;;;;-0.86;100.00;99644.80;109428;1251;70429;-55
2024/02/09 04:55:07;;;;;;;;;;;;;;;-0.86;100.00;99653.31;109379;1251;58905;-55
2024/02/09 04:57:34;;;;;;;;;;;;;;;-0.86;100.00;99655.52;109416;1251;58953;-56
2024/02/09 05:00:02;;;;;;;;;;;;;;;-0.86;100.00;99664.84;109390;1251;74731;-56
2024/02/09 05:02:38;;;;;;;;;;;;;;;-0.83;100.00;99664.81;109423;1251;66682;-56
2024/02/09 05:05:08;;;;;;;;;;;;;;;-0.81;100.00;99661.03;109429;1254;71307;-56
2024/02/09 05:07:36;;;;;;;;;;;;;;;-0.80;100.00;99662.80;109436;1251;59483;-55
2024/02/09 05:10:04;;;;;;;;;;;;;;;-0.78;100.00;99671.66;109446;1251;59885;-60
2024/02/09 05:12:32;;;;;;;;;;;;;;;-0.79;100.00;99674.33;109408;1251;75461;-55
2024/02/09 05:14:59;;;;;;;;;;;;;;;-0.79;100.00;99671.66;109450;1251;65955;-56
2024/02/09 05:17:27;;;;;;;;;;;;;;;-0.80;100.00;99659.74;109428;1251;72780;-56
2024/02/09 05:19:58;;;;;;;;;;;;;;;-0.81;100.00;99659.33;109429;1251;58997;-55
2024/02/09 05:22:28;;;;;;;;;;;;;;;-0.81;100.00;99670.30;109423;1251;60618;-55
2024/02/09 05:24:56;;;;;;;;;;;;;;;-0.82;100.00;99683.15;109483;1251;73449;-55
2024/02/09 05:27:24;;;;;;;;;;;;;;;-0.81;100.00;99688.50;109425;1251;65516;-56
2024/02/09 05:29:52;;;;;;;;;;;;;;;-0.81;100.00;99688.53;109411;1252;71500;-56
2024/02/09 05:32:23;;;;;;;;;;;;;;;-0.83;100.00;99680.95;109360;1251;59824;-56
2024/02/09 05:34:51;;;;;;;;;;;;;;;-0.84;100.00;99672.02;109382;1252;59120;-56
2024/02/09 05:37:20;;;;;;;;;;;;;;;-0.85;100.00;99669.02;109345;1253;74994;-55
2024/02/09 05:39:47;;;;;;;;;;;;;;;-0.85;100.00;99674.71;109392;1253;67116;-55
2024/02/09 05:42:15;;;;;;;;;;;;;;;-0.84;100.00;99675.06;109433;1253;72729;-60
2024/02/09 05:44:43;;;;;;;;;;;;;;;-0.81;100.00;99676.38;109422;1254;59557;-56
2024/02/09 05:47:11;;;;;;;;;;;;;;;-0.80;100.00;99684.33;109414;1253;58937;-56
2024/02/09 05:49:38;;;;;;;;;;;;;;;-0.81;100.00;99686.98;109287;1253;74922;-56
2024/02/09 05:52:07;;;;;;;;;;;;;;;-0.82;100.00;99690.63;109313;1253;66131;-55
2024/02/09 05:54:35;;;;;;;;;;;;;;;-0.82;100.00;99689.13;109345;1253;72875;-56
2024/02/09 05:57:03;;;;;;;;;;;;;;;-0.82;100.00;99688.89;109283;1254;59334;-57
2024/02/09 05:59:30;;;;;;;;;;;;;;;-0.80;100.00;99687.59;109327;1253;59875;-56
2024/02/09 06:01:58;;;;;;;;;;;;;;;-0.78;100.00;99684.98;109325;1253;73427;-56
2024/02/09 06:04:26;;;;;;;;;;;;;;;-0.78;100.00;99682.25;109294;1252;66544;-57
2024/02/09 06:06:54;;;;;;;;;;;;;;;-0.78;100.00;99678.75;109277;1254;73274;-58
2024/02/09 06:09:22;;;;;;;;;;;;;;;-0.80;100.00;99685.50;109287;1254;59937;-56
2024/02/09 06:11:49;;;;;;;;;;;;;;;-0.78;100.00;99688.23;109288;1254;59121;-56
2024/02/09 06:14:16;;;;;;;;;;;;;;;-0.75;100.00;99685.83;109320;1255;74696;-56
2024/02/09 06:16:45;;;;;;;;;;;;;;;-0.72;100.00;99678.40;109365;1254;66950;-63
2024/02/09 06:19:13;;;;;;;;;;;;;;;-0.71;100.00;99675.98;109317;1254;72769;-57
2024/02/09 06:21:41;;;;;;;;;;;;;;;-0.70;100.00;99675.22;109266;1254;61540;-58
2024/02/09 06:24:08;;;;;;;;;;;;;;;-0.69;100.00;99681.04;109344;1253;60058;-57
2024/02/09 06:26:36;;;;;;;;;;;;;;;-0.66;100.00;99684.27;109333;1254;73601;-57
2024/02/09 06:29:03;;;;;;;;;;;;;;;-0.64;100.00;99689.56;109260;1254;67049;-62
2024/02/09 06:31:31;;;;;;;;;;;;;;;-0.63;100.00;99692.16;109274;1254;73656;-57
2024/02/09 06:33:59;;;;;;;;;;;;;;;-0.63;100.00;99689.46;109306;1254;60987;-57
2024/02/09 06:36:27;;;;;;;;;;;;;;;-0.61;100.00;99683.00;109339;1253;58978;-56
2024/02/09 06:38:54;;;;;;;;;;;;;;;-0.58;100.00;99679.01;109304;1254;74777;-57
2024/02/09 06:41:22;;;;;;;;;;;;;;;-0.53;100.00;99684.66;109300;1254;66158;-57
2024/02/09 06:43:51;;;;;;;;;;;;;;;-0.48;100.00;99687.54;109265;1253;71799;-59
2024/02/09 06:46:20;;;;;;;;;;;;;;;-0.46;100.00;99687.08;109289;1254;60836;-56
2024/02/09 06:48:48;;;;;;;;;;;;;;;-0.51;100.00;99689.11;109337;1254;59328;-56
2024/02/09 06:51:19;;;;;;;;;;;;;;;-0.53;100.00;99690.35;109279;1253;73542;-60
2024/02/09 06:53:48;;;;;;;;;;;;;;;-0.52;100.00;99682.52;109327;1254;67236;-56
2024/02/09 06:56:15;;;;;;;;;;;;;;;-0.48;100.00;99681.05;109288;1253;72770;-57
2024/02/09 06:58:45;;;;;;;;;;;;;;;-0.45;100.00;99683.40;109376;1253;60072;-57
2024/02/09 07:01:14;;;;;;;;;;;;;;;-0.45;100.00;99685.56;109318;1254;59903;-62
2024/02/09 07:03:42;;;;;;;;;;;;;;;-0.43;100.00;99692.63;109291;1254;74651;-56
2024/02/09 07:06:10;;;;;;;;;;;;;;;-0.43;100.00;99691.70;109345;1252;65614;-56
2024/02/09 07:08:42;;;;;;;;;;;;;;;-0.42;100.00;99689.98;109315;1253;72734;-56
2024/02/09 07:11:11;;;;;;;;;;;;;;;-0.43;100.00;99691.88;109263;1254;60188;-60
2024/02/09 07:13:41;;;;;;;;;;;;;;;-0.42;100.00;99694.53;109280;1253;58882;-56
2024/02/09 07:16:10;;;;;;;;;;;;;;;-0.43;100.00;99688.13;109280;1253;74752;-56
2024/02/09 07:18:39;;;;;;;;;;;;;;;-0.41;100.00;99684.09;109305;1253;64550;-57
2024/02/09 07:21:08;;;;;;;;;;;;;;;-0.39;100.00;99688.88;109344;1254;72693;-61
2024/02/09 07:23:36;;;;;;;;;;;;;;;-0.38;100.00;99684.69;109271;1254;59014;-59
2024/02/09 07:26:10;;;;;;;;;;;;;;;-0.36;100.00;99687.05;109344;1254;60047;-57
2024/02/09 07:28:40;;;;;;;;;;;;;;;-0.36;100.00;99679.16;109313;1254;74720;-56
2024/02/09 07:31:09;;;;;;;;;;;;;;;-0.36;100.00;99674.55;109260;1253;66937;-60
2024/02/09 07:33:37;;;;;;;;;;;;;;;-0.36;100.00;99677.34;109320;1254;73126;-57
2024/02/09 07:36:06;;;;;;;;;;;;;;;-0.35;100.00;99669.70;109280;1253;59085;-57
2024/02/09 07:38:35;;;;;;;;;;;;;;;-0.31;100.00;99664.13;109311;1254;59254;-57
2024/02/09 07:41:03;;;;;;;;;;;;;;;-0.26;100.00;99664.39;109312;1254;73466;-58
2024/02/09 07:43:31;;;;;;;;;;;;;;;-0.21;100.00;99660.39;109277;1253;66809;-57
2024/02/09 07:45:58;;;;;;;;;;;;;;;-0.15;100.00;99664.13;109344;1253;72736;-57
2024/02/09 07:48:28;;;;;;;;;;;;;;;-0.07;100.00;99660.58;109360;1253;60960;-57
2024/02/09 07:51:02;;;;;;;;;;;;;;;0.01;100.00;99659.21;109357;1253;59541;-56
2024/02/09 07:53:32;;;;;;;;;;;;;;;0.07;100.00;99650.16;109352;1254;74650;-56
2024/02/09 07:56:00;;;;;;;;;;;;;;;0.10;100.00;99647.31;109372;1253;67603;-57
2024/02/09 07:58:28;;;;;;;;;;;;;;;0.14;100.00;99646.79;109365;1253;71154;-57
2024/02/09 08:00:56;;;;;;;;;;;;;;;0.15;100.00;99647.40;109306;1252;61001;-57
2024/02/09 08:03:24;;;;;;;;;;;;;;;0.15;100.00;99645.05;109338;1253;59500;-58
2024/02/09 08:05:53;;;;;;;;;;;;;;;0.11;100.00;99640.23;109347;1253;74772;-58
2024/02/09 08:08:21;;;;;;;;;;;;;;;0.07;100.00;99637.51;109338;1253;68740;-58
2024/02/09 08:10:49;;;;;;;;;;;;;;;0.05;100.00;99630.33;109271;1253;74796;-57
2024/02/09 08:13:17;;;;;;;;;;;;;;;0.05;100.00;99627.07;109223;1253;61223;-58
2024/02/09 08:15:46;;;;;;;;;;;;;;;0.03;100.00;99626.20;109403;1253;61094;-58
2024/02/09 08:18:16;;;;;;;;;;;;;;;0.02;100.00;99630.59;109282;1254;73448;-58
2024/02/09 08:20:43;;;;;;;;;;;;;;;-0.02;100.00;99638.41;109311;1253;67786;-57
2024/02/09 08:23:11;;;;;;;;;;;;;;;-0.03;100.00;99634.46;109282;1253;73116;-57
2024/02/09 08:25:39;;;;;;;;;;;;;;;-0.04;100.00;99631.95;109257;1253;60405;-57
2024/02/09 08:28:06;;;;;;;;;;;;;;;-0.04;100.00;99623.59;109343;1253;58922;-57
2024/02/09 08:30:34;;;;;;;;;;;;;;;-0.04;100.00;99620.65;109322;1253;73401;-58
2024/02/09 08:33:01;;;;;;;;;;;;;;;-0.05;100.00;99619.73;109273;1253;65794;-58
2024/02/09 08:35:29;;;;;;;;;;;;;;;-0.05;100.00;99610.34;109184;1253;74941;-61
2024/02/09 08:37:56;;;;;;;;;;;;;;;-0.01;100.00;99606.77;109217;1253;60960;-58
2024/02/09 08:40:25;;;;;;;;;;;;;;;0.02;100.00;99604.96;109278;1253;59922;-58
2024/02/09 08:42:54;;;;;;;;;;;;;;;0.05;100.00;99599.95;109214;1255;77105;-57
2024/02/09 08:45:21;;;;;;;;;;;;;;;0.06;100.00;99606.84;109241;1254;65819;-58
2024/02/09 08:47:49;;;;;;;;;;;;;;;0.11;100.00;99605.92;109204;1253;76078;-58
2024/02/09 08:50:17;;;;;;;;;;;;;;;0.14;100.00;99607.71;109213;1253;60627;-58
2024/02/09 08:52:44;;;;;;;;;;;;;;;0.11;100.00;99606.91;109250;1252;59884;-58
2024/02/09 08:55:12;;;;;;;;;;;;;;;0.10;100.00;99606.87;109284;1253;77786;-58
2024/02/09 08:57:42;;;;;;;;;;;;;;;0.08;100.00;99609.56;109210;1253;65679;-58
2024/02/09 09:00:10;;;;;;;;;;;;;;;0.07;100.00;99604.86;109215;1254;74717;-58
2024/02/09 09:02:37;;;;;;;;;;;;;;;0.08;100.00;99597.13;109235;1253;62001;-58
2024/02/09 09:05:07;;;;;;;;;;;;;;;0.09;100.00;99591.52;109268;1253;61917;-59
2024/02/09 09:07:36;;;;;;;;;;;;;;;0.14;100.00;99587.73;109229;1253;76842;-59
2024/02/09 09:10:05;;;;;;;;;;;;;;;0.16;100.00;99579.45;109258;1253;65733;-58
2024/02/09 09:12:36;;;;;;;;;;;;;;;0.18;100.00;99575.69;109270;1253;73568;-59
2024/02/09 09:15:04;;;;;;;;;;;;;;;0.17;100.00;99573.21;109236;1254;61822;-58
2024/02/09 09:17:32;;;;;;;;;;;;;;;0.14;100.00;99577.42;109214;1253;60832;-61
2024/02/09 09:20:00;;;;;;;;;;;;;;;0.14;100.00;99578.52;109235;1253;76303;-59
2024/02/09 09:22:28;;;;;;;;;;;;;;;0.15;100.00;99577.16;109284;1253;69374;-59
2024/02/09 09:24:56;;;;;;;;;;;;;;;0.19;100.00;99575.44;109269;1253;74894;-59
2024/02/09 09:27:24;;;;;;;;;;;;;;;0.23;100.00;99565.86;109243;1252;63141;-58
2024/02/09 09:29:52;;;;;;;;;;;;;;;0.26;100.00;99561.38;109230;1253;61939;-59
2024/02/09 09:32:20;;;;;;;;;;;;;;;0.26;100.00;99550.98;109294;1252;75977;-59
2024/02/09 09:34:49;;;;;;;;;;;;;;;0.27;100.00;99540.16;109352;1254;68894;-59
2024/02/09 09:37:17;;;;;;;;;;;;;;;0.27;100.00;99536.17;109296;1252;74886;-59
2024/02/09 09:39:45;;;;;;;;;;;;;;;0.26;100.00;99535.89;109212;1253;63686;-60
2024/02/09 09:42:13;;;;;;;;;;;;;;;0.28;100.00;99533.35;109315;1252;61897;-60
2024/02/09 09:44:44;;;;;;;;;;;;;;;0.30;100.00;99529.92;109309;1253;76942;-59
2024/02/09 09:47:13;;;;;;;;;;;;;;;0.30;100.00;99526.52;109331;1252;68688;-59
2024/02/09 09:49:41;;;;;;;;;;;;;;;0.29;100.00;99524.20;109298;1253;74206;-60
2024/02/09 09:52:17;;;;;;;;;;;;;;;0.29;100.00;99516.84;109263;1254;62855;-59
2024/02/09 09:54:45;;;;;;;;;;;;;;;0.34;100.00;99515.22;109328;1252;60780;-59
2024/02/09 09:57:14;;;;;;;;;;;;;;;0.38;100.00;99516.42;109235;1252;76800;-59
2024/02/09 09:59:41;;;;;;;;;;;;;;;0.37;100.00;99514.98;109331;1253;70235;-61
2024/02/09 10:02:10;;;;;;;;;;;;;;;0.35;100.00;99515.44;109288;1253;75176;-59
2024/02/09 10:04:37;;;;;;;;;;;;;;;0.34;100.00;99509.76;109289;1252;63757;-60
2024/02/09 10:07:08;;;;;;;;;;;;;;;0.35;100.00;99507.75;109314;1253;60908;-60
2024/02/09 10:09:35;;;;;;;;;;;;;;;0.36;100.00;99507.13;109362;1253;76434;-59
2024/02/09 10:12:06;;;;;;;;;;;;;;;0.38;100.00;99511.25;109290;1253;69602;-60
2024/02/09 10:14:36;;;;;;;;;;;;;;;0.41;100.00;99507.71;109291;1252;72274;-60
2024/02/09 10:17:06;;;;;;;;;;;;;;;0.45;100.00;99502.09;109277;1252;62255;-59
2024/02/09 10:19:34;;;;;;;;;;;;;;;0.49;100.00;99493.02;109320;1252;61473;-62
2024/02/09 10:22:02;;;;;;;;;;;;;;;0.57;100.00;99490.64;109266;1253;77059;-60
2024/02/09 10:24:45;;;;;;;;;;;;;;;0.66;100.00;99479.30;109246;1255;69826;-60
2024/02/09 10:27:12;;;;;;;;;;;;;;;0.70;100.00;99476.89;109230;1253;74031;-61
2024/02/09 10:29:40;;;;;;;;;;;;;;;0.68;100.00;99474.86;109215;1255;59659;-62
2024/02/09 10:32:08;;;;;;;;;;;;;;;0.65;100.00;99469.32;109257;1253;59916;-61
2024/02/09 10:34:35;;;;;;;;;;;;;;;0.59;100.00;99464.58;109269;1253;76889;-60
2024/02/09 10:37:03;;;;;;;;;;;;;;;0.52;100.00;99454.16;109291;1253;68596;-61
2024/02/09 10:39:40;;;;;;;;;;;;;;;0.45;100.00;99451.67;109231;1255;74832;-62
2024/02/09 10:42:08;;;;;;;;;;;;;;;0.45;100.00;99446.73;109262;1253;61936;-62
2024/02/09 10:44:36;;;;;;;;;;;;;;;0.46;100.00;99443.86;109265;1252;61881;-64
2024/02/09 10:47:06;;;;;;;;;;;;;;;0.48;100.00;99446.45;109252;1253;75738;-64
2024/02/09 10:49:34;;;;;;;;;;;;;;;0.50;100.00;99437.27;109302;1252;68006;-64
2024/02/09 10:52:04;;;;;;;;;;;;;;;0.50;100.00;99435.99;109259;1253;73937;-64
2024/02/09 10:54:35;;;;;;;;;;;;;;;0.50;100.00;99433.79;109205;1253;61920;-64
2024/02/09 10:57:05;;;;;;;;;;;;;;;0.50;100.00;99431.40;109258;1252;60806;-63
2024/02/09 10:59:35;;;;;;;;;;;;;;;0.51;100.00;99428.21;109259;1253;75352;-64
2024/02/09 11:02:07;;;;;;;;;;;;;;;0.50;100.00;99423.36;109243;1252;69574;-64
2024/02/09 11:04:34;;;;;;;;;;;;;;;0.49;100.00;99416.13;109263;1253;73737;-63
2024/02/09 11:07:02;;;;;;;;;;;;;;;0.50;100.00;99415.73;109243;1253;63090;-62
2024/02/09 11:09:30;;;;;;;;;;;;;;;0.53;100.00;99410.99;109229;1253;59709;-62
2024/02/09 11:12:04;;;;;;;;;;;;;;;0.54;100.00;99407.96;109224;1253;77669;-62
2024/02/09 11:14:33;;;;;;;;;;;;;;;0.53;100.00;99414.02;109254;1253;68872;-62
2024/02/09 11:17:03;;;;;;;;;;;;;;;0.51;100.00;99410.27;109211;1253;74805;-62
2024/02/09 11:19:30;;;;;;;;;;;;;;;0.50;100.00;99399.29;109234;1253;62996;-62
2024/02/09 11:21:58;;;;;;;;;;;;;;;0.49;100.00;99393.86;109224;1253;60759;-63
2024/02/09 11:24:26;;;;;;;;;;;;;;;0.46;100.00;99395.82;109052;1253;288627;-62
2024/02/09 11:26:55;;;;;;;;;;;;;;;0.46;100.00;99397.52;109267;1253;68072;-62
2024/02/09 11:29:23;;;;;;;;;;;;;;;0.46;100.00;99396.33;109271;1253;75609;-61
2024/02/09 11:31:56;;;;;;;;;;;;;;;0.45;100.00;99392.33;109196;1253;63652;-62
2024/02/09 11:34:24;;;;;;;;;;;;;;;0.41;100.00;99387.12;109223;1253;60819;-61
2024/02/09 11:36:53;;;;;;;;;;;;;;;0.36;100.00;99383.80;109224;1253;76510;-61
2024/02/09 11:39:23;;;;;;;;;;;;;;;0.33;100.00;99377.77;109308;1253;68395;-61
2024/02/09 11:41:51;;;;;;;;;;;;;;;0.30;100.00;99376.83;109165;1253;74051;-62
2024/02/09 11:44:19;;;;;;;;;;;;;;;0.29;100.00;99374.70;109249;1254;61975;-62
2024/02/09 11:46:47;;;;;;;;;;;;;;;0.27;100.00;99375.70;109338;1252;60740;-60
2024/02/09 11:49:15;;;;;;;;;;;;;;;0.28;100.00;99372.07;109308;1252;77437;-60
2024/02/09 11:51:42;;;;;;;;;;;;;;;0.31;100.00;99369.77;109304;1252;69187;-61
2024/02/09 11:54:10;;;;;;;;;;;;;;;0.33;100.00;99371.56;109250;1252;73158;-61
2024/02/09 11:56:39;;;;;;;;;;;;;;;0.35;100.00;99368.11;109269;1252;63022;-61
2024/02/09 11:59:06;;;;;;;;;;;;;;;0.36;100.00;99372.88;109349;1252;63016;-60
2024/02/09 12:01:34;;;;;;;;;;;;;;;0.36;100.00;99375.92;109348;1252;77205;-61
2024/02/09 12:04:02;;;;;;;;;;;;;;;0.35;100.00;99366.30;109306;1252;70706;-61
2024/02/09 12:06:29;;;;;;;;;;;;;;;0.33;100.00;99358.23;109287;1252;74385;-61
2024/02/09 12:08:57;;;;;;;;;;;;;;;0.32;100.00;99356.64;109302;1252;61197;-62
2024/02/09 12:11:25;;;;;;;;;;;;;;;0.28;100.00;99354.05;109361;1252;61634;-63
2024/02/09 12:13:52;;;;;;;;;;;;;;;0.25;100.00;99351.64;109295;1252;75771;-64
2024/02/09 12:16:20;;;;;;;;;;;;;;;0.23;100.00;99358.80;109272;1252;67751;-64
2024/02/09 12:18:51;;;;;;;;;;;;;;;0.23;100.00;99358.66;109273;1253;73577;-64
2024/02/09 12:21:19;;;;;;;;;;;;;;;0.21;100.00;99351.98;109289;1253;63487;-64
2024/02/09 12:23:46;;;;;;;;;;;;;;;0.18;100.00;99352.61;109344;1252;60680;-65
2024/02/09 12:26:14;;;;;;;;;;;;;;;0.15;100.00;99360.21;109210;1254;77039;-64
2024/02/09 12:28:42;;;;;;;;;;;;;;;0.11;100.00;99355.29;109311;1252;68733;-64
2024/02/09 12:31:09;;;;;;;;;;;;;;;0.09;100.00;99364.33;109319;1252;74834;-64
2024/02/09 12:33:46;;;;;;;;;;;;;;;0.06;100.00;99368.17;109248;1253;61309;-63
2024/02/09 12:36:15;;;;;;;;;;;;;;;0.02;100.00;99366.52;109243;1252;60916;-64
2024/02/09 12:38:42;;;;;;;;;;;;;;;-0.02;100.00;99366.34;109339;1252;77093;-63
2024/02/09 12:41:14;;;;;;;;;;;;;;;-0.06;100.00;99354.45;109231;1252;69906;-63
2024/02/09 12:43:44;;;;;;;;;;;;;;;-0.08;100.00;99352.50;109245;1252;74278;-62
2024/02/09 12:46:12;;;;;;;;;;;;;;;-0.07;100.00;99350.23;109346;1252;63507;-63
2024/02/09 12:48:41;;;;;;;;;;;;;;;-0.05;100.00;99345.77;109305;1252;60939;-63
2024/02/09 12:51:09;;;;;;;;;;;;;;;-0.03;100.00;99341.84;109365;1253;76084;-63
2024/02/09 12:53:36;;;;;;;;;;;;;;;-0.02;100.00;99334.92;109420;1252;68312;-64
2024/02/09 12:56:05;;;;;;;;;;;;;;;-0.02;100.00;99336.81;109276;1253;74780;-63
2024/02/09 12:58:32;;;;;;;;;;;;;;;-0.06;100.00;99338.49;109420;1252;63955;-63
2024/02/09 13:01:01;;;;;;;;;;;;;;;-0.10;100.00;99349.29;109302;1253;61852;-61
2024/02/09 13:03:29;;;;;;;;;;;;;;;-0.15;100.00;99366.32;109431;1252;76570;-62
2024/02/09 13:05:56;;;;;;;;;;;;;;;-0.21;100.00;99364.13;109366;1252;67901;-61
2024/02/09 13:08:29;;;;;;;;;;;;;;;-0.26;100.00;99372.21;109335;1252;74984;-61
2024/02/09 13:10:56;;;;;;;;;;;;;;;-0.29;100.00;99375.73;109334;1253;63272;-62
2024/02/09 13:13:24;;;;;;;;;;;;;;;-0.31;100.00;99372.96;109334;1253;60849;-62
2024/02/09 13:15:52;;;;;;;;;;;;;;;-0.33;100.00;99363.10;109298;1252;75651;-62
2024/02/09 13:18:20;;;;;;;;;;;;;;;-0.36;100.00;99361.64;109467;1252;69607;-63
2024/02/09 13:20:48;;;;;;;;;;;;;;;-0.39;100.00;99366.85;109392;1252;75414;-64
2024/02/09 13:23:21;;;;;;;;;;;;;;;-0.42;100.00;99368.16;109293;1253;61925;-64
2024/02/09 13:25:57;;;;;;;;;;;;;;;-0.44;100.00;99379.30;109263;1252;60733;-65
2024/02/09 13:28:24;;;;;;;;;;;;;;;-0.46;100.00;99377.63;109307;1252;75831;-66
2024/02/09 13:30:52;;;;;;;;;;;;;;;-0.47;100.00;99374.64;109245;1255;69094;-66
2024/02/09 13:33:20;;;;;;;;;;;;;;;-0.47;100.00;99376.87;109234;1253;73106;-65
2024/02/09 13:35:47;;;;;;;;;;;;;;;-0.48;100.00;99377.05;109144;1255;62243;-63
2024/02/09 13:38:15;;;;;;;;;;;;;;;-0.46;100.00;99378.10;109249;1255;60241;-67
2024/02/09 13:40:43;;;;;;;;;;;;;;;-0.44;100.00;99378.98;109282;1252;77725;-66
2024/02/09 13:43:10;;;;;;;;;;;;;;;-0.44;100.00;99376.71;109245;1253;68441;-66
2024/02/09 13:45:39;;;;;;;;;;;;;;;-0.44;100.00;99368.38;109212;1253;74878;-66
2024/02/09 13:48:08;;;;;;;;;;;;;;;-0.46;100.00;99362.70;109224;1252;63047;-67
2024/02/09 13:50:39;;;;;;;;;;;;;;;-0.48;100.00;99362.05;109372;1252;63152;-67
2024/02/09 13:53:07;;;;;;;;;;;;;;;-0.51;100.00;99364.04;109242;1253;76598;-67
2024/02/09 13:55:37;;;;;;;;;;;;;;;-0.55;100.00;99368.98;109198;1253;67126;-67
2024/02/09 13:58:09;;;;;;;;;;;;;;;-0.58;100.00;99367.08;109185;1256;75188;-68
2024/02/09 14:00:37;;;;;;;;;;;;;;;-0.60;100.00;99364.36;109256;1253;63669;-67
2024/02/09 14:03:04;;;;;;;;;;;;;;;-0.62;100.00;99359.04;109244;1252;60703;-66
2024/02/09 14:05:32;;;;;;;;;;;;;;;-0.63;100.00;99356.95;109273;1253;76673;-67
2024/02/09 14:08:00;;;;;;;;;;;;;;;-0.64;100.00;99357.81;109208;1253;68171;-67
2024/02/09 14:10:27;;;;;;;;;;;;;;;-0.64;100.00;99359.04;109257;1253;74637;-67
2024/02/09 14:12:55;;;;;;;;;;;;;;;-0.65;100.00;99362.87;109245;1253;63358;-67
2024/02/09 14:15:22;;;;;;;;;;;;;;;-0.67;100.00;99360.44;109380;1252;61991;-67
2024/02/09 14:17:50;;;;;;;;;;;;;;;-0.68;100.00;99361.40;109315;1252;76798;-68
2024/02/09 14:20:22;;;;;;;;;;;;;;;-0.67;100.00;99366.16;109210;1252;69188;-67
2024/02/09 14:22:51;;;;;;;;;;;;;;;-0.68;100.00;99368.63;109202;1253;76256;-67
2024/02/09 14:25:19;;;;;;;;;;;;;;;-0.69;100.00;99367.71;109235;1253;63011;-66
2024/02/09 14:27:47;;;;;;;;;;;;;;;-0.72;100.00;99368.75;109205;1253;61915;-67